sensor_id;sensor_type;location;lat;lon;timestamp;P1;durP1;ratioP1;P2;durP2;ratioP2
54899;SDS011;40801;41.924;25.562;2024-02-23T00:01:02;12.68;;;11.45;;
54899;SDS011;40801;41.924;25.562;2024-02-23T00:03:27;13.48;;;12.18;;
54899;SDS011;40801;41.924;25.562;2024-02-23T00:05:53;12.88;;;11.68;;
54899;SDS011;40801;41.924;25.562;2024-02-23T00:08:18;13.95;;;12.57;;
54899;SDS011;40801;41.924;25.562;2024-02-23T00:10:44;13.10;;;11.85;;
54899;SDS011;40801;41.924;25.562;2024-02-23T00:13:09;13.60;;;12.30;;
54899;SDS011;40801;41.924;25.562;2024-02-23T00:15:35;14.05;;;12.60;;
54899;SDS011;40801;41.924;25.562;2024-02-23T00:18:00;14.80;;;13.30;;
54899;SDS011;40801;41.924;25.562;2024-02-23T00:20:28;13.43;;;12.05;;
54899;SDS011;40801;41.924;25.562;2024-02-23T00:22:53;13.55;;;12.20;;
54899;SDS011;40801;41.924;25.562;2024-02-23T00:25:19;13.68;;;12.30;;
54899;SDS011;40801;41.924;25.562;2024-02-23T00:27:44;13.10;;;11.80;;
54899;SDS011;40801;41.924;25.562;2024-02-23T00:30:11;13.52;;;12.27;;
54899;SDS011;40801;41.924;25.562;2024-02-23T00:32:38;14.73;;;13.13;;
54899;SDS011;40801;41.924;25.562;2024-02-23T00:35:03;14.25;;;12.85;;
54899;SDS011;40801;41.924;25.562;2024-02-23T00:37:29;14.25;;;12.75;;
54899;SDS011;40801;41.924;25.562;2024-02-23T00:39:54;14.13;;;12.75;;
54899;SDS011;40801;41.924;25.562;2024-02-23T00:42:20;13.88;;;12.20;;
54899;SDS011;40801;41.924;25.562;2024-02-23T00:44:46;14.35;;;12.88;;
54899;SDS011;40801;41.924;25.562;2024-02-23T00:47:11;14.20;;;12.80;;
54899;SDS011;40801;41.924;25.562;2024-02-23T00:49:37;13.23;;;11.93;;
54899;SDS011;40801;41.924;25.562;2024-02-23T00:52:02;15.02;;;13.13;;
54899;SDS011;40801;41.924;25.562;2024-02-23T00:54:27;16.70;;;14.63;;
54899;SDS011;40801;41.924;25.562;2024-02-23T00:56:53;15.00;;;13.40;;
54899;SDS011;40801;41.924;25.562;2024-02-23T00:59:18;14.80;;;13.38;;
54899;SDS011;40801;41.924;25.562;2024-02-23T01:01:44;13.43;;;11.95;;
54899;SDS011;40801;41.924;25.562;2024-02-23T01:04:09;15.20;;;13.68;;
54899;SDS011;40801;41.924;25.562;2024-02-23T01:06:34;14.45;;;13.05;;
54899;SDS011;40801;41.924;25.562;2024-02-23T01:09:00;14.63;;;13.15;;
54899;SDS011;40801;41.924;25.562;2024-02-23T01:11:25;15.52;;;13.52;;
54899;SDS011;40801;41.924;25.562;2024-02-23T01:13:51;15.65;;;14.05;;
54899;SDS011;40801;41.924;25.562;2024-02-23T01:16:16;13.73;;;12.32;;
54899;SDS011;40801;41.924;25.562;2024-02-23T01:18:42;13.73;;;12.43;;
54899;SDS011;40801;41.924;25.562;2024-02-23T01:21:07;13.82;;;12.50;;
54899;SDS011;40801;41.924;25.562;2024-02-23T01:23:33;14.18;;;12.68;;
54899;SDS011;40801;41.924;25.562;2024-02-23T01:25:58;14.02;;;12.32;;
54899;SDS011;40801;41.924;25.562;2024-02-23T01:28:25;14.45;;;13.05;;
54899;SDS011;40801;41.924;25.562;2024-02-23T01:30:50;14.18;;;12.73;;
54899;SDS011;40801;41.924;25.562;2024-02-23T01:33:16;14.98;;;13.48;;
54899;SDS011;40801;41.924;25.562;2024-02-23T01:35:41;15.85;;;14.35;;
54899;SDS011;40801;41.924;25.562;2024-02-23T01:38:07;14.85;;;13.40;;
54899;SDS011;40801;41.924;25.562;2024-02-23T01:40:32;14.23;;;12.82;;
54899;SDS011;40801;41.924;25.562;2024-02-23T01:43:01;14.13;;;12.82;;
54899;SDS011;40801;41.924;25.562;2024-02-23T01:45:28;18.60;;;15.18;;
54899;SDS011;40801;41.924;25.562;2024-02-23T01:47:54;15.98;;;14.15;;
54899;SDS011;40801;41.924;25.562;2024-02-23T01:50:20;16.23;;;14.55;;
54899;SDS011;40801;41.924;25.562;2024-02-23T01:52:45;18.60;;;16.23;;
54899;SDS011;40801;41.924;25.562;2024-02-23T01:55:10;21.98;;;17.42;;
54899;SDS011;40801;41.924;25.562;2024-02-23T01:57:36;23.08;;;17.83;;
54899;SDS011;40801;41.924;25.562;2024-02-23T02:00:02;20.65;;;16.25;;
54899;SDS011;40801;41.924;25.562;2024-02-23T02:02:29;20.88;;;16.08;;
54899;SDS011;40801;41.924;25.562;2024-02-23T02:04:55;18.58;;;15.65;;
54899;SDS011;40801;41.924;25.562;2024-02-23T02:07:20;15.70;;;12.73;;
54899;SDS011;40801;41.924;25.562;2024-02-23T02:09:47;17.27;;;14.85;;
54899;SDS011;40801;41.924;25.562;2024-02-23T02:12:13;15.50;;;13.95;;
54899;SDS011;40801;41.924;25.562;2024-02-23T02:14:38;17.75;;;14.05;;
54899;SDS011;40801;41.924;25.562;2024-02-23T02:17:04;16.58;;;14.27;;
54899;SDS011;40801;41.924;25.562;2024-02-23T02:19:29;16.75;;;14.80;;
54899;SDS011;40801;41.924;25.562;2024-02-23T02:21:55;15.07;;;13.55;;
54899;SDS011;40801;41.924;25.562;2024-02-23T02:24:21;15.55;;;13.77;;
54899;SDS011;40801;41.924;25.562;2024-02-23T02:26:46;15.85;;;14.18;;
54899;SDS011;40801;41.924;25.562;2024-02-23T02:29:15;14.10;;;12.57;;
54899;SDS011;40801;41.924;25.562;2024-02-23T02:31:40;16.38;;;13.57;;
54899;SDS011;40801;41.924;25.562;2024-02-23T02:34:06;14.43;;;13.00;;
54899;SDS011;40801;41.924;25.562;2024-02-23T02:36:31;15.05;;;13.57;;
54899;SDS011;40801;41.924;25.562;2024-02-23T02:38:56;15.57;;;12.88;;
54899;SDS011;40801;41.924;25.562;2024-02-23T02:41:23;13.60;;;12.30;;
54899;SDS011;40801;41.924;25.562;2024-02-23T02:43:52;18.27;;;14.23;;
54899;SDS011;40801;41.924;25.562;2024-02-23T02:46:18;14.90;;;12.52;;
54899;SDS011;40801;41.924;25.562;2024-02-23T02:48:43;15.73;;;14.13;;
54899;SDS011;40801;41.924;25.562;2024-02-23T02:51:08;16.02;;;14.40;;
54899;SDS011;40801;41.924;25.562;2024-02-23T02:53:35;20.65;;;15.93;;
54899;SDS011;40801;41.924;25.562;2024-02-23T02:56:00;19.10;;;14.52;;
54899;SDS011;40801;41.924;25.562;2024-02-23T02:58:25;18.48;;;16.58;;
54899;SDS011;40801;41.924;25.562;2024-02-23T03:00:51;18.50;;;16.35;;
54899;SDS011;40801;41.924;25.562;2024-02-23T03:03:16;18.83;;;16.13;;
54899;SDS011;40801;41.924;25.562;2024-02-23T03:05:41;13.82;;;12.15;;
54899;SDS011;40801;41.924;25.562;2024-02-23T03:08:07;16.77;;;14.98;;
54899;SDS011;40801;41.924;25.562;2024-02-23T03:10:32;17.45;;;15.20;;
54899;SDS011;40801;41.924;25.562;2024-02-23T03:12:58;17.50;;;15.70;;
54899;SDS011;40801;41.924;25.562;2024-02-23T03:15:23;15.93;;;14.07;;
54899;SDS011;40801;41.924;25.562;2024-02-23T03:17:48;22.75;;;15.40;;
54899;SDS011;40801;41.924;25.562;2024-02-23T03:20:15;16.15;;;14.45;;
54899;SDS011;40801;41.924;25.562;2024-02-23T03:22:40;15.95;;;14.18;;
54899;SDS011;40801;41.924;25.562;2024-02-23T03:25:06;16.10;;;14.23;;
54899;SDS011;40801;41.924;25.562;2024-02-23T03:27:37;19.27;;;15.55;;
54899;SDS011;40801;41.924;25.562;2024-02-23T03:30:06;16.77;;;14.60;;
54899;SDS011;40801;41.924;25.562;2024-02-23T03:32:34;37.40;;;33.38;;
54899;SDS011;40801;41.924;25.562;2024-02-23T03:35:04;20.40;;;18.30;;
54899;SDS011;40801;41.924;25.562;2024-02-23T03:37:30;16.85;;;14.77;;
54899;SDS011;40801;41.924;25.562;2024-02-23T03:39:56;17.80;;;15.93;;
54899;SDS011;40801;41.924;25.562;2024-02-23T03:42:21;17.38;;;15.50;;
54899;SDS011;40801;41.924;25.562;2024-02-23T03:44:47;21.30;;;15.85;;
54899;SDS011;40801;41.924;25.562;2024-02-23T03:47:12;16.38;;;14.77;;
54899;SDS011;40801;41.924;25.562;2024-02-23T03:49:38;16.75;;;15.05;;
54899;SDS011;40801;41.924;25.562;2024-02-23T03:52:04;19.83;;;14.88;;
54899;SDS011;40801;41.924;25.562;2024-02-23T03:54:30;17.60;;;15.75;;
54899;SDS011;40801;41.924;25.562;2024-02-23T03:56:56;16.50;;;14.68;;
54899;SDS011;40801;41.924;25.562;2024-02-23T03:59:22;17.25;;;15.45;;
54899;SDS011;40801;41.924;25.562;2024-02-23T04:01:47;18.23;;;14.85;;
54899;SDS011;40801;41.924;25.562;2024-02-23T04:04:13;20.20;;;16.67;;
54899;SDS011;40801;41.924;25.562;2024-02-23T04:06:38;16.50;;;14.90;;
54899;SDS011;40801;41.924;25.562;2024-02-23T04:09:04;21.90;;;18.73;;
54899;SDS011;40801;41.924;25.562;2024-02-23T04:11:30;21.65;;;17.80;;
54899;SDS011;40801;41.924;25.562;2024-02-23T04:13:56;19.25;;;16.83;;
54899;SDS011;40801;41.924;25.562;2024-02-23T04:16:24;17.02;;;14.82;;
54899;SDS011;40801;41.924;25.562;2024-02-23T04:18:50;19.53;;;16.43;;
54899;SDS011;40801;41.924;25.562;2024-02-23T04:21:16;19.02;;;16.98;;
54899;SDS011;40801;41.924;25.562;2024-02-23T04:23:42;17.77;;;16.02;;
54899;SDS011;40801;41.924;25.562;2024-02-23T04:26:08;18.42;;;16.48;;
54899;SDS011;40801;41.924;25.562;2024-02-23T04:28:34;17.48;;;15.68;;
54899;SDS011;40801;41.924;25.562;2024-02-23T04:30:59;17.48;;;15.77;;
54899;SDS011;40801;41.924;25.562;2024-02-23T04:33:25;20.10;;;18.00;;
54899;SDS011;40801;41.924;25.562;2024-02-23T04:35:51;21.83;;;19.52;;
54899;SDS011;40801;41.924;25.562;2024-02-23T04:38:16;22.00;;;18.75;;
54899;SDS011;40801;41.924;25.562;2024-02-23T04:40:42;23.02;;;18.63;;
54899;SDS011;40801;41.924;25.562;2024-02-23T04:43:07;21.33;;;19.15;;
54899;SDS011;40801;41.924;25.562;2024-02-23T04:45:33;20.02;;;17.05;;
54899;SDS011;40801;41.924;25.562;2024-02-23T04:47:58;20.45;;;18.23;;
54899;SDS011;40801;41.924;25.562;2024-02-23T04:50:23;21.00;;;18.80;;
54899;SDS011;40801;41.924;25.562;2024-02-23T04:52:49;19.92;;;17.83;;
54899;SDS011;40801;41.924;25.562;2024-02-23T04:55:15;19.58;;;17.58;;
54899;SDS011;40801;41.924;25.562;2024-02-23T04:57:40;22.98;;;18.95;;
54899;SDS011;40801;41.924;25.562;2024-02-23T05:00:06;21.02;;;18.25;;
54899;SDS011;40801;41.924;25.562;2024-02-23T05:02:33;21.05;;;18.85;;
54899;SDS011;40801;41.924;25.562;2024-02-23T05:05:01;18.73;;;16.80;;
54899;SDS011;40801;41.924;25.562;2024-02-23T05:07:29;25.13;;;22.48;;
54899;SDS011;40801;41.924;25.562;2024-02-23T05:09:58;32.13;;;26.05;;
54899;SDS011;40801;41.924;25.562;2024-02-23T05:12:24;39.67;;;30.05;;
54899;SDS011;40801;41.924;25.562;2024-02-23T05:14:49;35.25;;;27.83;;
54899;SDS011;40801;41.924;25.562;2024-02-23T05:17:14;36.55;;;27.10;;
54899;SDS011;40801;41.924;25.562;2024-02-23T05:19:40;32.67;;;27.45;;
54899;SDS011;40801;41.924;25.562;2024-02-23T05:22:05;33.35;;;27.85;;
54899;SDS011;40801;41.924;25.562;2024-02-23T05:24:30;33.05;;;27.98;;
54899;SDS011;40801;41.924;25.562;2024-02-23T05:26:56;46.95;;;37.20;;
54899;SDS011;40801;41.924;25.562;2024-02-23T05:29:23;61.75;;;48.50;;
54899;SDS011;40801;41.924;25.562;2024-02-23T05:31:49;34.35;;;27.90;;
54899;SDS011;40801;41.924;25.562;2024-02-23T05:34:16;30.52;;;24.30;;
54899;SDS011;40801;41.924;25.562;2024-02-23T05:36:43;30.08;;;25.10;;
54899;SDS011;40801;41.924;25.562;2024-02-23T05:39:09;27.70;;;23.48;;
54899;SDS011;40801;41.924;25.562;2024-02-23T05:41:35;33.13;;;25.45;;
54899;SDS011;40801;41.924;25.562;2024-02-23T05:44:02;26.33;;;22.35;;
54899;SDS011;40801;41.924;25.562;2024-02-23T05:46:30;30.00;;;24.50;;
54899;SDS011;40801;41.924;25.562;2024-02-23T05:49:05;30.67;;;23.95;;
54899;SDS011;40801;41.924;25.562;2024-02-23T05:51:30;26.48;;;23.35;;
54899;SDS011;40801;41.924;25.562;2024-02-23T05:53:56;31.45;;;24.17;;
54899;SDS011;40801;41.924;25.562;2024-02-23T05:56:22;28.15;;;23.15;;
54899;SDS011;40801;41.924;25.562;2024-02-23T05:58:49;26.27;;;22.83;;
54899;SDS011;40801;41.924;25.562;2024-02-23T06:01:15;28.02;;;23.63;;
54899;SDS011;40801;41.924;25.562;2024-02-23T06:03:40;27.55;;;23.13;;
54899;SDS011;40801;41.924;25.562;2024-02-23T06:06:09;24.70;;;20.38;;
54899;SDS011;40801;41.924;25.562;2024-02-23T06:08:35;22.80;;;19.95;;
54899;SDS011;40801;41.924;25.562;2024-02-23T06:11:01;30.05;;;24.30;;
54899;SDS011;40801;41.924;25.562;2024-02-23T06:13:28;28.00;;;22.50;;
54899;SDS011;40801;41.924;25.562;2024-02-23T06:15:54;25.48;;;22.77;;
54899;SDS011;40801;41.924;25.562;2024-02-23T06:18:19;25.45;;;21.90;;
54899;SDS011;40801;41.924;25.562;2024-02-23T06:20:45;28.42;;;22.33;;
54899;SDS011;40801;41.924;25.562;2024-02-23T06:23:10;25.70;;;22.88;;
54899;SDS011;40801;41.924;25.562;2024-02-23T06:25:35;25.48;;;22.42;;
54899;SDS011;40801;41.924;25.562;2024-02-23T06:28:01;25.23;;;21.52;;
54899;SDS011;40801;41.924;25.562;2024-02-23T06:30:26;23.85;;;21.30;;
54899;SDS011;40801;41.924;25.562;2024-02-23T06:32:52;24.20;;;20.50;;
54899;SDS011;40801;41.924;25.562;2024-02-23T06:35:18;27.42;;;22.95;;
54899;SDS011;40801;41.924;25.562;2024-02-23T06:37:43;28.80;;;25.20;;
54899;SDS011;40801;41.924;25.562;2024-02-23T06:40:09;31.35;;;24.60;;
54899;SDS011;40801;41.924;25.562;2024-02-23T06:42:35;30.73;;;26.55;;
54899;SDS011;40801;41.924;25.562;2024-02-23T06:45:00;27.77;;;24.25;;
54899;SDS011;40801;41.924;25.562;2024-02-23T06:47:26;26.80;;;23.52;;
54899;SDS011;40801;41.924;25.562;2024-02-23T06:49:51;25.17;;;21.88;;
54899;SDS011;40801;41.924;25.562;2024-02-23T06:52:17;26.90;;;22.88;;
54899;SDS011;40801;41.924;25.562;2024-02-23T06:54:43;27.48;;;24.10;;
54899;SDS011;40801;41.924;25.562;2024-02-23T06:57:08;35.22;;;27.95;;
54899;SDS011;40801;41.924;25.562;2024-02-23T06:59:34;26.90;;;22.20;;
54899;SDS011;40801;41.924;25.562;2024-02-23T07:01:59;22.33;;;19.80;;
54899;SDS011;40801;41.924;25.562;2024-02-23T07:04:24;23.30;;;20.75;;
54899;SDS011;40801;41.924;25.562;2024-02-23T07:06:50;25.08;;;22.42;;
54899;SDS011;40801;41.924;25.562;2024-02-23T07:09:16;25.73;;;23.02;;
54899;SDS011;40801;41.924;25.562;2024-02-23T07:11:41;26.90;;;23.88;;
54899;SDS011;40801;41.924;25.562;2024-02-23T07:14:08;25.45;;;22.67;;
54899;SDS011;40801;41.924;25.562;2024-02-23T07:16:38;36.08;;;24.70;;
54899;SDS011;40801;41.924;25.562;2024-02-23T07:19:06;29.58;;;22.85;;
54899;SDS011;40801;41.924;25.562;2024-02-23T07:21:32;30.13;;;26.35;;
54899;SDS011;40801;41.924;25.562;2024-02-23T07:23:58;28.30;;;25.00;;
54899;SDS011;40801;41.924;25.562;2024-02-23T07:26:24;27.65;;;24.25;;
54899;SDS011;40801;41.924;25.562;2024-02-23T07:28:49;32.80;;;29.30;;
54899;SDS011;40801;41.924;25.562;2024-02-23T07:31:14;25.98;;;23.17;;
54899;SDS011;40801;41.924;25.562;2024-02-23T07:33:40;25.55;;;23.05;;
54899;SDS011;40801;41.924;25.562;2024-02-23T07:36:07;26.90;;;24.25;;
54899;SDS011;40801;41.924;25.562;2024-02-23T07:38:33;25.63;;;22.92;;
54899;SDS011;40801;41.924;25.562;2024-02-23T07:40:59;24.73;;;22.15;;
54899;SDS011;40801;41.924;25.562;2024-02-23T07:43:24;25.17;;;20.40;;
54899;SDS011;40801;41.924;25.562;2024-02-23T07:45:51;28.05;;;25.05;;
54899;SDS011;40801;41.924;25.562;2024-02-23T07:48:16;20.98;;;18.92;;
54899;SDS011;40801;41.924;25.562;2024-02-23T07:50:42;21.65;;;19.52;;
54899;SDS011;40801;41.924;25.562;2024-02-23T07:53:07;19.33;;;17.52;;
54899;SDS011;40801;41.924;25.562;2024-02-23T07:55:33;19.92;;;18.10;;
54899;SDS011;40801;41.924;25.562;2024-02-23T07:57:58;21.20;;;19.10;;
54899;SDS011;40801;41.924;25.562;2024-02-23T08:00:26;19.55;;;17.80;;
54899;SDS011;40801;41.924;25.562;2024-02-23T08:02:52;19.85;;;17.95;;
54899;SDS011;40801;41.924;25.562;2024-02-23T08:05:21;24.65;;;22.13;;
54899;SDS011;40801;41.924;25.562;2024-02-23T08:07:47;20.30;;;18.40;;
54899;SDS011;40801;41.924;25.562;2024-02-23T08:10:12;23.20;;;20.92;;
54899;SDS011;40801;41.924;25.562;2024-02-23T08:12:38;18.80;;;17.00;;
54899;SDS011;40801;41.924;25.562;2024-02-23T08:15:04;19.23;;;17.45;;
54899;SDS011;40801;41.924;25.562;2024-02-23T08:17:29;20.83;;;18.88;;
54899;SDS011;40801;41.924;25.562;2024-02-23T08:19:55;35.53;;;32.17;;
54899;SDS011;40801;41.924;25.562;2024-02-23T08:22:20;39.53;;;35.85;;
54899;SDS011;40801;41.924;25.562;2024-02-23T08:24:46;19.35;;;17.52;;
54899;SDS011;40801;41.924;25.562;2024-02-23T08:27:11;19.52;;;17.73;;
54899;SDS011;40801;41.924;25.562;2024-02-23T08:29:37;18.40;;;16.80;;
54899;SDS011;40801;41.924;25.562;2024-02-23T08:32:03;16.92;;;15.07;;
54899;SDS011;40801;41.924;25.562;2024-02-23T08:34:29;20.98;;;18.77;;
54899;SDS011;40801;41.924;25.562;2024-02-23T08:36:54;25.42;;;23.27;;
54899;SDS011;40801;41.924;25.562;2024-02-23T08:39:20;17.95;;;16.38;;
54899;SDS011;40801;41.924;25.562;2024-02-23T08:41:47;18.17;;;16.30;;
54899;SDS011;40801;41.924;25.562;2024-02-23T08:44:12;18.45;;;16.75;;
54899;SDS011;40801;41.924;25.562;2024-02-23T08:46:38;18.83;;;15.13;;
54899;SDS011;40801;41.924;25.562;2024-02-23T08:49:04;15.43;;;13.95;;
54899;SDS011;40801;41.924;25.562;2024-02-23T08:51:30;18.77;;;16.98;;
54899;SDS011;40801;41.924;25.562;2024-02-23T08:53:55;17.25;;;15.60;;
54899;SDS011;40801;41.924;25.562;2024-02-23T08:56:22;27.70;;;24.65;;
54899;SDS011;40801;41.924;25.562;2024-02-23T08:58:47;17.65;;;15.98;;
54899;SDS011;40801;41.924;25.562;2024-02-23T09:01:13;17.80;;;16.20;;
54899;SDS011;40801;41.924;25.562;2024-02-23T09:03:39;17.80;;;15.85;;
54899;SDS011;40801;41.924;25.562;2024-02-23T09:06:04;17.63;;;15.95;;
54899;SDS011;40801;41.924;25.562;2024-02-23T09:08:29;18.52;;;16.73;;
54899;SDS011;40801;41.924;25.562;2024-02-23T09:10:55;17.98;;;16.48;;
54899;SDS011;40801;41.924;25.562;2024-02-23T09:13:20;18.50;;;16.80;;
54899;SDS011;40801;41.924;25.562;2024-02-23T09:15:46;17.02;;;15.57;;
54899;SDS011;40801;41.924;25.562;2024-02-23T09:18:11;17.85;;;16.25;;
54899;SDS011;40801;41.924;25.562;2024-02-23T09:20:36;20.00;;;18.10;;
54899;SDS011;40801;41.924;25.562;2024-02-23T09:23:02;18.50;;;17.00;;
54899;SDS011;40801;41.924;25.562;2024-02-23T09:25:28;17.00;;;15.50;;
54899;SDS011;40801;41.924;25.562;2024-02-23T09:27:56;19.15;;;17.35;;
54899;SDS011;40801;41.924;25.562;2024-02-23T09:30:22;17.35;;;15.85;;
54899;SDS011;40801;41.924;25.562;2024-02-23T09:32:47;17.90;;;16.23;;
54899;SDS011;40801;41.924;25.562;2024-02-23T09:35:13;18.38;;;16.58;;
54899;SDS011;40801;41.924;25.562;2024-02-23T09:37:39;20.15;;;15.82;;
54899;SDS011;40801;41.924;25.562;2024-02-23T09:40:04;17.25;;;15.75;;
54899;SDS011;40801;41.924;25.562;2024-02-23T09:42:31;18.58;;;16.80;;
54899;SDS011;40801;41.924;25.562;2024-02-23T09:44:58;16.33;;;14.70;;
54899;SDS011;40801;41.924;25.562;2024-02-23T09:47:28;17.52;;;15.90;;
54899;SDS011;40801;41.924;25.562;2024-02-23T09:49:54;18.27;;;16.70;;
54899;SDS011;40801;41.924;25.562;2024-02-23T09:52:20;18.10;;;16.35;;
54899;SDS011;40801;41.924;25.562;2024-02-23T09:54:46;24.00;;;15.88;;
54899;SDS011;40801;41.924;25.562;2024-02-23T09:57:12;18.05;;;16.38;;
54899;SDS011;40801;41.924;25.562;2024-02-23T09:59:40;18.05;;;16.45;;
54899;SDS011;40801;41.924;25.562;2024-02-23T10:02:07;20.17;;;18.13;;
54899;SDS011;40801;41.924;25.562;2024-02-23T10:04:37;31.75;;;28.38;;
54899;SDS011;40801;41.924;25.562;2024-02-23T10:07:04;26.88;;;24.25;;
54899;SDS011;40801;41.924;25.562;2024-02-23T10:09:31;16.30;;;14.90;;
54899;SDS011;40801;41.924;25.562;2024-02-23T10:11:56;20.20;;;18.27;;
54899;SDS011;40801;41.924;25.562;2024-02-23T10:14:22;20.33;;;18.33;;
54899;SDS011;40801;41.924;25.562;2024-02-23T10:16:47;17.40;;;15.80;;
54899;SDS011;40801;41.924;25.562;2024-02-23T10:19:18;18.27;;;16.45;;
54899;SDS011;40801;41.924;25.562;2024-02-23T10:21:44;17.17;;;15.38;;
54899;SDS011;40801;41.924;25.562;2024-02-23T10:24:10;15.88;;;14.23;;
54899;SDS011;40801;41.924;25.562;2024-02-23T10:26:35;16.75;;;15.35;;
54899;SDS011;40801;41.924;25.562;2024-02-23T10:29:01;18.13;;;16.52;;
54899;SDS011;40801;41.924;25.562;2024-02-23T10:31:28;16.33;;;14.82;;
54899;SDS011;40801;41.924;25.562;2024-02-23T10:33:58;17.90;;;16.10;;
54899;SDS011;40801;41.924;25.562;2024-02-23T10:36:24;16.98;;;15.35;;
54899;SDS011;40801;41.924;25.562;2024-02-23T10:38:55;15.43;;;14.05;;
54899;SDS011;40801;41.924;25.562;2024-02-23T10:41:24;18.80;;;17.10;;
54899;SDS011;40801;41.924;25.562;2024-02-23T10:43:51;15.52;;;14.07;;
54899;SDS011;40801;41.924;25.562;2024-02-23T10:46:17;14.65;;;13.18;;
54899;SDS011;40801;41.924;25.562;2024-02-23T10:48:44;14.15;;;12.50;;
54899;SDS011;40801;41.924;25.562;2024-02-23T10:51:13;13.95;;;12.75;;
54899;SDS011;40801;41.924;25.562;2024-02-23T10:53:39;11.95;;;10.85;;
54899;SDS011;40801;41.924;25.562;2024-02-23T10:56:05;12.38;;;11.23;;
54899;SDS011;40801;41.924;25.562;2024-02-23T10:58:32;12.32;;;11.20;;
54899;SDS011;40801;41.924;25.562;2024-02-23T11:01:01;8.15;;;7.47;;
54899;SDS011;40801;41.924;25.562;2024-02-23T11:03:29;9.55;;;4.47;;
54899;SDS011;40801;41.924;25.562;2024-02-23T11:05:56;3.55;;;3.25;;
54899;SDS011;40801;41.924;25.562;2024-02-23T11:08:21;3.85;;;3.55;;
54899;SDS011;40801;41.924;25.562;2024-02-23T11:10:50;4.03;;;3.63;;
54899;SDS011;40801;41.924;25.562;2024-02-23T11:13:38;4.45;;;3.38;;
54899;SDS011;40801;41.924;25.562;2024-02-23T11:16:04;3.65;;;3.08;;
54899;SDS011;40801;41.924;25.562;2024-02-23T11:18:34;3.65;;;2.88;;
54899;SDS011;40801;41.924;25.562;2024-02-23T11:21:01;3.05;;;2.85;;
54899;SDS011;40801;41.924;25.562;2024-02-23T11:26:17;4.45;;;3.25;;
54899;SDS011;40801;41.924;25.562;2024-02-23T11:33:54;6.00;;;5.47;;
54899;SDS011;40801;41.924;25.562;2024-02-23T11:36:29;5.65;;;4.95;;
54899;SDS011;40801;41.924;25.562;2024-02-23T11:38:57;3.72;;;3.45;;
54899;SDS011;40801;41.924;25.562;2024-02-23T11:41:24;3.05;;;2.85;;
54899;SDS011;40801;41.924;25.562;2024-02-23T11:43:51;5.65;;;4.10;;
54899;SDS011;40801;41.924;25.562;2024-02-23T11:46:17;5.18;;;4.07;;
54899;SDS011;40801;41.924;25.562;2024-02-23T11:48:43;4.25;;;3.90;;
54899;SDS011;40801;41.924;25.562;2024-02-23T11:51:09;4.53;;;4.10;;
54899;SDS011;40801;41.924;25.562;2024-02-23T11:53:38;3.90;;;3.60;;
54899;SDS011;40801;41.924;25.562;2024-02-23T11:56:06;2.97;;;2.65;;
54899;SDS011;40801;41.924;25.562;2024-02-23T12:00:58;3.08;;;2.80;;
54899;SDS011;40801;41.924;25.562;2024-02-23T12:03:27;3.38;;;3.08;;
54899;SDS011;40801;41.924;25.562;2024-02-23T12:05:53;3.13;;;2.88;;
54899;SDS011;40801;41.924;25.562;2024-02-23T12:08:18;3.30;;;3.10;;
54899;SDS011;40801;41.924;25.562;2024-02-23T12:10:44;3.05;;;2.72;;
54899;SDS011;40801;41.924;25.562;2024-02-23T12:13:09;15.70;;;14.10;;
54899;SDS011;40801;41.924;25.562;2024-02-23T12:15:35;3.05;;;2.70;;
54899;SDS011;40801;41.924;25.562;2024-02-23T12:18:00;3.65;;;3.30;;
54899;SDS011;40801;41.924;25.562;2024-02-23T12:20:28;3.80;;;3.50;;
54899;SDS011;40801;41.924;25.562;2024-02-23T12:22:57;3.92;;;3.53;;
54899;SDS011;40801;41.924;25.562;2024-02-23T12:25:25;3.78;;;3.40;;
54899;SDS011;40801;41.924;25.562;2024-02-23T12:27:55;3.45;;;3.05;;
54899;SDS011;40801;41.924;25.562;2024-02-23T12:30:21;3.63;;;3.40;;
54899;SDS011;40801;41.924;25.562;2024-02-23T12:32:47;3.53;;;3.33;;
54899;SDS011;40801;41.924;25.562;2024-02-23T12:35:12;4.63;;;4.32;;
54899;SDS011;40801;41.924;25.562;2024-02-23T12:37:40;4.63;;;4.25;;
54899;SDS011;40801;41.924;25.562;2024-02-23T12:40:06;4.00;;;3.70;;
54899;SDS011;40801;41.924;25.562;2024-02-23T12:42:32;5.35;;;4.70;;
54899;SDS011;40801;41.924;25.562;2024-02-23T12:44:58;3.13;;;2.80;;
54899;SDS011;40801;41.924;25.562;2024-02-23T12:47:23;3.30;;;3.10;;
54899;SDS011;40801;41.924;25.562;2024-02-23T12:49:49;4.10;;;3.72;;
54899;SDS011;40801;41.924;25.562;2024-02-23T12:52:14;5.65;;;5.07;;
54899;SDS011;40801;41.924;25.562;2024-02-23T12:54:39;4.10;;;3.80;;
54899;SDS011;40801;41.924;25.562;2024-02-23T12:57:06;3.40;;;3.10;;
54899;SDS011;40801;41.924;25.562;2024-02-23T12:59:32;3.00;;;2.75;;
54899;SDS011;40801;41.924;25.562;2024-02-23T13:01:57;3.42;;;3.15;;
54899;SDS011;40801;41.924;25.562;2024-02-23T13:04:23;10.82;;;8.90;;
54899;SDS011;40801;41.924;25.562;2024-02-23T13:06:48;3.83;;;3.53;;
54899;SDS011;40801;41.924;25.562;2024-02-23T13:09:14;3.65;;;3.35;;
54899;SDS011;40801;41.924;25.562;2024-02-23T13:11:39;3.05;;;2.80;;
54899;SDS011;40801;41.924;25.562;2024-02-23T13:14:05;4.00;;;3.60;;
54899;SDS011;40801;41.924;25.562;2024-02-23T13:16:31;5.03;;;4.63;;
54899;SDS011;40801;41.924;25.562;2024-02-23T13:18:56;3.20;;;3.00;;
54899;SDS011;40801;41.924;25.562;2024-02-23T13:21:22;3.85;;;3.30;;
54899;SDS011;40801;41.924;25.562;2024-02-23T13:23:49;4.47;;;4.07;;
54899;SDS011;40801;41.924;25.562;2024-02-23T13:26:14;5.35;;;3.22;;
54899;SDS011;40801;41.924;25.562;2024-02-23T13:28:43;4.80;;;3.63;;
54899;SDS011;40801;41.924;25.562;2024-02-23T13:31:09;14.07;;;12.95;;
54899;SDS011;40801;41.924;25.562;2024-02-23T13:33:35;3.50;;;3.20;;
54899;SDS011;40801;41.924;25.562;2024-02-23T13:36:00;9.13;;;8.32;;
54899;SDS011;40801;41.924;25.562;2024-02-23T13:38:25;5.97;;;5.47;;
54899;SDS011;40801;41.924;25.562;2024-02-23T13:40:51;3.30;;;3.10;;
54899;SDS011;40801;41.924;25.562;2024-02-23T13:43:16;3.88;;;3.58;;
54899;SDS011;40801;41.924;25.562;2024-02-23T13:45:49;3.80;;;3.33;;
54899;SDS011;40801;41.924;25.562;2024-02-23T13:48:18;3.15;;;2.85;;
54899;SDS011;40801;41.924;25.562;2024-02-23T13:50:45;4.38;;;3.15;;
54899;SDS011;40801;41.924;25.562;2024-02-23T13:53:11;3.92;;;3.63;;
54899;SDS011;40801;41.924;25.562;2024-02-23T13:55:37;3.80;;;3.53;;
54899;SDS011;40801;41.924;25.562;2024-02-23T13:58:03;4.13;;;3.80;;
54899;SDS011;40801;41.924;25.562;2024-02-23T14:00:29;4.75;;;4.35;;
54899;SDS011;40801;41.924;25.562;2024-02-23T14:02:54;5.00;;;4.50;;
54899;SDS011;40801;41.924;25.562;2024-02-23T14:05:20;3.60;;;3.30;;
54899;SDS011;40801;41.924;25.562;2024-02-23T14:07:46;3.90;;;3.60;;
54899;SDS011;40801;41.924;25.562;2024-02-23T14:10:12;5.95;;;3.65;;
54899;SDS011;40801;41.924;25.562;2024-02-23T14:12:38;7.00;;;4.45;;
54899;SDS011;40801;41.924;25.562;2024-02-23T14:15:05;4.30;;;3.90;;
54899;SDS011;40801;41.924;25.562;2024-02-23T14:17:30;4.63;;;3.78;;